Terminal Aerodrome Forecast
Issued by NWS Quad Cities IA IL

Home | Current Version | Previous Version | Text Only | Print | Product List | Glossary On
Versions: 1 2 3 4 5 6 7 8 9 10 11 12 13 14 15 16 17 18 19 20 21 22 23 24 25
000
FTUS43 KDVN 261911 AAA
TAFDBQ
TAF AMD
KDBQ 261911Z 2619/2718 20014G20KT P6SM VCSH SCT020 BKN035
      TEMPO 2619/2621 4SM -SHRA BKN020
     FM270100 23008KT P6SM SCT035 BKN250
     FM270900 27007KT 6SM BR BKN035
     FM271500 28007KT P6SM BKN250=

USA.gov is the U.S. government's official web portal to all federal, state and local government web resources and services.